Time;durP1;ratioP1;P1;durP2;ratioP2;P2;SDS_P1;SDS_P2;PMS_P1;PMS_P2;Temp;Humidity;BMP_temperature;BMP_pressure;BME280_temperature;BME280_humidity;BME280_pressure;Samples;Min_cycle;Max_cycle;Signal;HPM_P1;HPM_P2
2023/09/13 00:01:48;;;;;;;0.00;0.00;;;;;;;;;;5097926;28;20024;-82
2023/09/13 00:04:14;;;;;;;0.00;0.00;;;;;;;;;;5065265;28;20024;-82
2023/09/13 00:06:39;;;;;;;0.00;0.00;;;;;;;;;;5126697;28;20549;-82
2023/09/13 00:09:06;;;;;;;0.00;0.00;;;;;;;;;;5116324;28;20030;-82
2023/09/13 00:11:36;;;;;;;0.00;0.00;;;;;;;;;;5114594;28;20027;-82
2023/09/13 00:14:02;;;;;;;0.00;0.00;;;;;;;;;;5106163;28;20035;-83
2023/09/13 00:16:28;;;;;;;0.00;0.00;;;;;;;;;;5129850;28;20034;-83
2023/09/13 00:19:03;;;;;;;0.00;0.00;;;;;;;;;;5130263;28;20087;-81
2023/09/13 00:21:30;;;;;;;0.00;0.00;;;;;;;;;;5125731;28;20385;-83
2023/09/13 00:23:57;;;;;;;0.00;0.00;;;;;;;;;;5101317;28;20055;-83
2023/09/13 00:26:22;;;;;;;0.00;0.00;;;;;;;;;;5118417;28;20136;-84
2023/09/13 00:28:49;;;;;;;0.00;0.00;;;;;;;;;;5083279;28;20401;-83
2023/09/13 00:31:15;;;;;;;0.00;0.00;;;;;;;;;;5117899;28;20047;-82
2023/09/13 00:33:40;;;;;;;0.00;0.00;;;;;;;;;;5099507;28;20483;-82
2023/09/13 00:36:06;;;;;;;0.00;0.00;;;;;;;;;;5118197;28;20042;-82
2023/09/13 00:38:31;;;;;;;0.00;0.00;;;;;;;;;;5118087;28;20027;-82
2023/09/13 00:40:57;;;;;;;0.00;0.00;;;;;;;;;;5101964;28;20031;-82
2023/09/13 00:43:24;;;;;;;0.00;0.00;;;;;;;;;;5100179;28;20074;-82
2023/09/13 00:45:50;;;;;;;0.00;0.00;;;;;;;;;;5117919;28;20428;-82
2023/09/13 00:48:16;;;;;;;0.00;0.00;;;;;;;;;;5117556;28;20562;-83
2023/09/13 00:50:42;;;;;;;0.00;0.00;;;;;;;;;;5083040;28;20030;-82
2023/09/13 00:53:08;;;;;;;0.00;0.00;;;;;;;;;;5082435;28;20102;-83
2023/09/13 00:55:33;;;;;;;0.00;0.00;;;;;;;;;;5099228;28;20486;-82
2023/09/13 00:57:59;;;;;;;0.00;0.00;;;;;;;;;;5117366;28;20023;-83
2023/09/13 01:00:24;;;;;;;0.00;0.00;;;;;;;;;;5100557;28;20068;-82
2023/09/13 01:02:50;;;;;;;0.00;0.00;;;;;;;;;;5083473;28;20102;-83
2023/09/13 01:05:16;;;;;;;0.00;0.00;;;;;;;;;;5117541;28;20031;-83
2023/09/13 01:07:41;;;;;;;0.00;0.00;;;;;;;;;;5099392;28;20118;-82
2023/09/13 01:10:08;;;;;;;0.00;0.00;;;;;;;;;;5099321;28;20019;-81
2023/09/13 01:12:33;;;;;;;0.00;0.00;;;;;;;;;;5098966;28;20023;-82
2023/09/13 01:14:59;;;;;;;0.00;0.00;;;;;;;;;;5098568;28;20100;-81
2023/09/13 01:17:33;;;;;;;0.00;0.00;;;;;;;;;;5099349;28;20032;-82
2023/09/13 01:20:13;;;;;;;0.00;0.00;;;;;;;;;;5082768;28;20429;-81
2023/09/13 01:23:10;;;;;;;0.00;0.00;;;;;;;;;;5084031;28;20028;-81
2023/09/13 01:25:49;;;;;;;0.00;0.00;;;;;;;;;;5117495;28;20039;-82
2023/09/13 01:28:33;;;;;;;0.00;0.00;;;;;;;;;;5098661;28;20027;-81
2023/09/13 01:31:01;;;;;;;0.00;0.00;;;;;;;;;;5116587;28;20468;-81
2023/09/13 01:33:27;;;;;;;0.00;0.00;;;;;;;;;;5065607;28;20038;-81
2023/09/13 01:35:52;;;;;;;0.00;0.00;;;;;;;;;;5116859;28;20363;-81
2023/09/13 01:38:17;;;;;;;0.00;0.00;;;;;;;;;;5116708;28;20463;-81
2023/09/13 01:40:43;;;;;;;0.00;0.00;;;;;;;;;;5098946;28;20034;-81
2023/09/13 01:43:08;;;;;;;0.00;0.00;;;;;;;;;;5117088;28;20024;-81
2023/09/13 01:45:34;;;;;;;0.00;0.00;;;;;;;;;;5099848;28;20027;-81
2023/09/13 01:48:00;;;;;;;0.00;0.00;;;;;;;;;;5082002;28;20020;-82
2023/09/13 01:50:26;;;;;;;0.00;0.00;;;;;;;;;;5081953;28;20051;-81
2023/09/13 01:52:51;;;;;;;0.00;0.00;;;;;;;;;;5081630;28;20034;-81
2023/09/13 01:55:17;;;;;;;0.00;0.00;;;;;;;;;;5098214;28;20125;-83
2023/09/13 01:57:42;;;;;;;0.00;0.00;;;;;;;;;;5116546;28;20036;-83
2023/09/13 02:00:08;;;;;;;0.00;0.00;;;;;;;;;;5116468;28;20039;-83
2023/09/13 02:02:34;;;;;;;0.00;0.00;;;;;;;;;;5098062;28;20028;-82
2023/09/13 02:05:03;;;;;;;0.00;0.00;;;;;;;;;;5116340;28;20458;-82
2023/09/13 02:07:28;;;;;;;0.00;0.00;;;;;;;;;;5118228;28;20032;-82
2023/09/13 02:09:54;;;;;;;0.00;0.00;;;;;;;;;;5099322;28;20491;-83
2023/09/13 02:12:19;;;;;;;0.00;0.00;;;;;;;;;;5116362;28;20503;-82
2023/09/13 02:14:46;;;;;;;0.00;0.00;;;;;;;;;;5115845;28;20036;-83
2023/09/13 02:17:11;;;;;;;0.00;0.00;;;;;;;;;;5115047;28;20112;-82
2023/09/13 02:19:37;;;;;;;0.00;0.00;;;;;;;;;;5098077;28;20430;-82
2023/09/13 02:22:03;;;;;;;0.00;0.00;;;;;;;;;;5097868;28;20043;-83
2023/09/13 02:24:29;;;;;;;0.00;0.00;;;;;;;;;;5115964;28;20074;-83
2023/09/13 02:26:57;;;;;;;0.00;0.00;;;;;;;;;;5097920;28;20472;-82
2023/09/13 02:29:23;;;;;;;0.00;0.00;;;;;;;;;;5117393;28;20082;-83
2023/09/13 02:31:49;;;;;;;0.00;0.00;;;;;;;;;;5099863;28;20124;-83
2023/09/13 02:34:15;;;;;;;0.00;0.00;;;;;;;;;;5080613;28;20131;-83
2023/09/13 02:36:41;;;;;;;0.00;0.00;;;;;;;;;;5115261;28;20043;-83
2023/09/13 02:39:29;;;;;;;0.00;0.00;;;;;;;;;;5116035;28;20442;-83
2023/09/13 02:41:55;;;;;;;0.00;0.00;;;;;;;;;;5098963;28;20089;-82
2023/09/13 02:44:20;;;;;;;0.00;0.00;;;;;;;;;;5080743;28;20394;-83
2023/09/13 02:46:45;;;;;;;0.00;0.00;;;;;;;;;;5115307;28;20107;-82
2023/09/13 02:49:11;;;;;;;0.00;0.00;;;;;;;;;;5115482;28;20028;-82
2023/09/13 02:51:36;;;;;;;0.00;0.00;;;;;;;;;;5116889;28;20024;-82
2023/09/13 02:54:02;;;;;;;0.00;0.00;;;;;;;;;;5120950;28;20035;-83
2023/09/13 02:56:27;;;;;;;0.00;0.00;;;;;;;;;;5114857;28;20106;-82
2023/09/13 02:58:53;;;;;;;0.00;0.00;;;;;;;;;;5115475;28;20486;-82
2023/09/13 03:01:19;;;;;;;0.00;0.00;;;;;;;;;;5097241;28;20089;-82
2023/09/13 03:03:44;;;;;;;0.00;0.00;;;;;;;;;;5115003;28;20520;-82
2023/09/13 03:06:13;;;;;;;0.00;0.00;;;;;;;;;;5115242;28;20039;-82
2023/09/13 03:08:38;;;;;;;0.00;0.00;;;;;;;;;;5063734;28;20031;-82
2023/09/13 03:11:16;;;;;;;0.00;0.00;;;;;;;;;;5096801;28;20092;-82
2023/09/13 03:13:42;;;;;;;0.00;0.00;;;;;;;;;;5096688;28;20185;-81
2023/09/13 03:16:15;;;;;;;0.00;0.00;;;;;;;;;;5117141;28;20101;-82
2023/09/13 03:18:40;;;;;;;0.00;0.00;;;;;;;;;;5114899;28;20016;-82
2023/09/13 03:21:08;;;;;;;0.00;0.00;;;;;;;;;;5114740;28;20440;-83
2023/09/13 03:23:33;;;;;;;0.00;0.00;;;;;;;;;;5080580;28;20035;-82
2023/09/13 03:25:59;;;;;;;0.00;0.00;;;;;;;;;;5114623;28;20034;-84
2023/09/13 03:28:24;;;;;;;0.00;0.00;;;;;;;;;;5079845;28;20020;-83
2023/09/13 03:30:50;;;;;;;0.00;0.00;;;;;;;;;;5097037;28;20067;-83
2023/09/13 03:33:15;;;;;;;0.00;0.00;;;;;;;;;;5114938;28;21891;-83
2023/09/13 03:35:40;;;;;;;0.00;0.00;;;;;;;;;;5114567;28;20057;-82
2023/09/13 03:38:06;;;;;;;0.00;0.00;;;;;;;;;;5116043;28;20030;-83
2023/09/13 03:40:31;;;;;;;0.00;0.00;;;;;;;;;;5114843;28;20093;-82
2023/09/13 03:42:57;;;;;;;0.00;0.00;;;;;;;;;;5118884;28;20039;-82
2023/09/13 03:45:22;;;;;;;0.03;0.00;;;;;;;;;;5119018;28;20040;-83
2023/09/13 03:47:48;;;;;;;0.00;0.00;;;;;;;;;;5118742;28;20128;-83
2023/09/13 03:50:14;;;;;;;0.00;0.00;;;;;;;;;;5119290;28;20019;-82
2023/09/13 03:52:41;;;;;;;0.00;0.00;;;;;;;;;;5118954;28;20497;-83
2023/09/13 03:55:09;;;;;;;0.00;0.00;;;;;;;;;;5066639;28;20049;-82
2023/09/13 03:57:35;;;;;;;0.00;0.00;;;;;;;;;;5118517;28;20052;-82
2023/09/13 04:00:00;;;;;;;0.10;0.00;;;;;;;;;;5085538;28;20037;-82
2023/09/13 04:02:26;;;;;;;0.00;0.00;;;;;;;;;;5101279;28;20044;-82
2023/09/13 04:04:51;;;;;;;0.00;0.00;;;;;;;;;;5083480;28;20498;-83
2023/09/13 04:07:17;;;;;;;0.00;0.00;;;;;;;;;;5118657;28;20400;-82
2023/09/13 04:09:43;;;;;;;0.00;0.00;;;;;;;;;;5118791;28;20062;-83
2023/09/13 04:12:09;;;;;;;0.00;0.00;;;;;;;;;;5100852;28;20127;-82
2023/09/13 04:14:34;;;;;;;0.05;0.00;;;;;;;;;;5083337;28;20130;-83
2023/09/13 04:17:00;;;;;;;0.00;0.00;;;;;;;;;;5118184;28;20448;-82
2023/09/13 04:19:28;;;;;;;0.00;0.00;;;;;;;;;;5118125;28;20054;-82
2023/09/13 04:21:54;;;;;;;0.00;0.00;;;;;;;;;;5120704;28;20067;-82
2023/09/13 04:24:20;;;;;;;0.00;0.00;;;;;;;;;;5120466;28;20028;-82
2023/09/13 04:26:45;;;;;;;0.00;0.00;;;;;;;;;;5082949;28;20440;-82
2023/09/13 04:29:11;;;;;;;0.00;0.00;;;;;;;;;;5116974;28;20065;-82
2023/09/13 04:31:37;;;;;;;0.08;0.00;;;;;;;;;;5118317;28;20046;-83
2023/09/13 04:34:03;;;;;;;0.00;0.00;;;;;;;;;;5118100;28;20046;-82
2023/09/13 04:36:28;;;;;;;0.00;0.00;;;;;;;;;;5118196;28;20391;-81
2023/09/13 04:38:55;;;;;;;0.00;0.00;;;;;;;;;;5119137;28;20028;-82
2023/09/13 04:41:24;;;;;;;0.00;0.00;;;;;;;;;;5100716;28;20032;-83
2023/09/13 04:43:51;;;;;;;0.00;0.00;;;;;;;;;;5118300;28;20039;-81
2023/09/13 04:46:16;;;;;;;0.00;0.00;;;;;;;;;;5118955;28;20074;-81
2023/09/13 04:48:42;;;;;;;0.00;0.00;;;;;;;;;;5116938;28;20074;-82
2023/09/13 04:51:09;;;;;;;0.00;0.00;;;;;;;;;;5099488;28;20039;-83
2023/09/13 04:53:35;;;;;;;0.00;0.00;;;;;;;;;;5081969;28;20027;-82
2023/09/13 04:56:01;;;;;;;0.00;0.00;;;;;;;;;;5082804;28;20126;-83
2023/09/13 04:58:26;;;;;;;0.00;0.00;;;;;;;;;;5117777;28;20138;-82
2023/09/13 05:00:52;;;;;;;0.00;0.00;;;;;;;;;;5099735;28;20027;-83
2023/09/13 05:03:18;;;;;;;0.00;0.00;;;;;;;;;;5117681;28;20036;-83
2023/09/13 05:05:43;;;;;;;0.00;0.00;;;;;;;;;;5117973;28;20377;-83
2023/09/13 05:08:08;;;;;;;0.00;0.00;;;;;;;;;;5119393;28;20074;-83
2023/09/13 05:10:34;;;;;;;0.00;0.00;;;;;;;;;;5117604;28;20039;-82
2023/09/13 05:13:00;;;;;;;0.00;0.00;;;;;;;;;;5099094;28;20032;-82
2023/09/13 05:15:25;;;;;;;0.00;0.00;;;;;;;;;;5116812;28;20027;-82
2023/09/13 05:17:51;;;;;;;0.00;0.00;;;;;;;;;;5117370;28;20039;-82
2023/09/13 05:20:16;;;;;;;0.10;0.00;;;;;;;;;;5117525;28;20128;-82
2023/09/13 05:22:42;;;;;;;0.15;0.00;;;;;;;;;;5117376;28;20436;-83
2023/09/13 05:25:09;;;;;;;0.00;0.00;;;;;;;;;;5099442;28;20023;-83
2023/09/13 05:27:34;;;;;;;0.00;0.00;;;;;;;;;;5117141;28;20090;-83
2023/09/13 05:30:00;;;;;;;0.15;0.00;;;;;;;;;;5113429;28;20008;-81
2023/09/13 05:32:25;;;;;;;0.00;0.00;;;;;;;;;;5134459;27;20093;-82
2023/09/13 05:34:51;;;;;;;0.10;0.00;;;;;;;;;;5116680;28;20096;-82
2023/09/13 05:37:16;;;;;;;0.00;0.00;;;;;;;;;;5098997;28;20039;-82
2023/09/13 05:39:41;;;;;;;0.00;0.00;;;;;;;;;;5117334;28;20058;-80
2023/09/13 05:42:07;;;;;;;0.00;0.00;;;;;;;;;;5099200;28;20031;-84
2023/09/13 05:44:33;;;;;;;0.00;0.00;;;;;;;;;;5118927;28;20030;-81
2023/09/13 05:47:02;;;;;;;0.00;0.00;;;;;;;;;;5099503;28;20024;-83
2023/09/13 05:49:29;;;;;;;0.00;0.00;;;;;;;;;;5089640;28;20036;-83
2023/09/13 05:52:00;;;;;;;0.00;0.00;;;;;;;;;;5108551;28;20103;-83
2023/09/13 05:54:38;;;;;;;0.00;0.00;;;;;;;;;;5089647;28;20043;-83
2023/09/13 05:57:07;;;;;;;0.00;0.00;;;;;;;;;;5121030;28;20046;-81
2023/09/13 05:59:39;;;;;;;0.00;0.00;;;;;;;;;;5117594;28;20414;-83
2023/09/13 06:02:08;;;;;;;0.00;0.00;;;;;;;;;;5099737;28;20038;-82
2023/09/13 06:04:34;;;;;;;0.00;0.00;;;;;;;;;;5098092;28;20337;-81
2023/09/13 06:07:02;;;;;;;0.00;0.00;;;;;;;;;;5134092;27;20027;-82
2023/09/13 06:09:28;;;;;;;0.00;0.00;;;;;;;;;;5081701;28;20042;-83
2023/09/13 06:11:55;;;;;;;0.00;0.00;;;;;;;;;;5117422;28;20111;-82
2023/09/13 06:14:21;;;;;;;0.00;0.00;;;;;;;;;;5106509;28;20042;-83
2023/09/13 06:16:49;;;;;;;0.00;0.00;;;;;;;;;;5100576;28;20024;-84
2023/09/13 06:19:14;;;;;;;0.00;0.00;;;;;;;;;;5081752;28;20044;-83
2023/09/13 06:21:40;;;;;;;0.00;0.00;;;;;;;;;;5117311;28;20020;-83
2023/09/13 06:24:05;;;;;;;0.00;0.00;;;;;;;;;;5097492;28;20035;-83
2023/09/13 06:26:31;;;;;;;0.00;0.00;;;;;;;;;;5115680;28;20073;-83
2023/09/13 06:28:56;;;;;;;0.00;0.00;;;;;;;;;;5080694;28;20079;-84
2023/09/13 06:31:22;;;;;;;0.00;0.00;;;;;;;;;;5081087;28;20030;-83
2023/09/13 06:33:47;;;;;;;0.10;0.10;;;;;;;;;;5116336;28;20031;-83
2023/09/13 06:36:13;;;;;;;0.00;0.00;;;;;;;;;;5098222;28;20030;-83
2023/09/13 06:38:38;;;;;;;0.00;0.00;;;;;;;;;;5117111;28;20105;-83
2023/09/13 06:41:04;;;;;;;0.00;0.00;;;;;;;;;;5097701;28;20028;-83
2023/09/13 06:43:29;;;;;;;0.00;0.00;;;;;;;;;;5115358;28;20413;-83
2023/09/13 06:45:55;;;;;;;0.00;0.00;;;;;;;;;;5080785;28;20348;-81
2023/09/13 06:48:23;;;;;;;0.00;0.00;;;;;;;;;;5096677;28;20023;-82
2023/09/13 06:50:48;;;;;;;0.00;0.00;;;;;;;;;;5097794;28;20023;-84
2023/09/13 06:53:14;;;;;;;0.00;0.00;;;;;;;;;;5096947;28;20065;-81
2023/09/13 06:55:39;;;;;;;0.00;0.00;;;;;;;;;;5115348;28;20341;-82
2023/09/13 06:58:06;;;;;;;0.00;0.00;;;;;;;;;;5098147;28;20054;-82
2023/09/13 07:00:52;;;;;;;0.00;0.00;;;;;;;;;;5110206;28;20032;-82
2023/09/13 07:03:19;;;;;;;0.00;0.00;;;;;;;;;;5089567;28;20034;-83
2023/09/13 07:05:44;;;;;;;0.00;0.00;;;;;;;;;;5072287;28;20035;-82
2023/09/13 07:08:10;;;;;;;0.00;0.00;;;;;;;;;;5103816;28;20024;-83
2023/09/13 07:10:36;;;;;;;0.00;0.00;;;;;;;;;;5103608;28;20038;-81
2023/09/13 07:13:04;;;;;;;0.00;0.00;;;;;;;;;;5089789;28;20036;-82
2023/09/13 07:15:43;;;;;;;;;;;;;;;;;;;;;
2023/09/13 07:18:11;;;;;;;0.10;0.10;;;;;;;;;;5096713;28;20106;-83
2023/09/13 07:20:37;;;;;;;0.10;0.10;;;;;;;;;;5112108;28;20161;-82
2023/09/13 07:23:06;;;;;;;0.00;0.00;;;;;;;;;;5111727;28;20773;-83
2023/09/13 07:25:32;;;;;;;0.00;0.00;;;;;;;;;;5149082;27;20043;-81
2023/09/13 07:27:59;;;;;;;0.00;0.00;;;;;;;;;;5124558;28;20086;-84
2023/09/13 07:30:25;;;;;;;0.00;0.00;;;;;;;;;;5103367;28;20114;-83
2023/09/13 07:32:51;;;;;;;0.00;0.00;;;;;;;;;;5120194;28;20066;-82
2023/09/13 07:35:16;;;;;;;0.00;0.00;;;;;;;;;;5085353;28;20035;-84
2023/09/13 07:37:54;;;;;;;0.00;0.00;;;;;;;;;;5101673;28;20032;-83
2023/09/13 07:40:19;;;;;;;0.00;0.00;;;;;;;;;;5085171;28;20023;-85
2023/09/13 07:42:45;;;;;;;0.00;0.00;;;;;;;;;;5080554;28;20028;-84
2023/09/13 07:45:10;;;;;;;0.00;0.00;;;;;;;;;;5143474;28;20024;-84
2023/09/13 07:47:36;;;;;;;0.00;0.00;;;;;;;;;;5097382;28;20363;-83
2023/09/13 07:50:01;;;;;;;0.00;0.00;;;;;;;;;;5079580;28;20512;-83
2023/09/13 07:52:27;;;;;;;0.00;0.00;;;;;;;;;;5115160;28;20036;-81
2023/09/13 07:54:55;;;;;;;0.00;0.00;;;;;;;;;;5114671;28;20032;-86
2023/09/13 07:57:21;;;;;;;0.00;0.00;;;;;;;;;;5115498;28;20031;-86
2023/09/13 07:59:46;;;;;;;0.00;0.00;;;;;;;;;;5096970;28;20038;-85
2023/09/13 08:02:12;;;;;;;0.00;0.00;;;;;;;;;;5114678;28;20024;-86
2023/09/13 08:04:38;;;;;;;0.00;0.00;;;;;;;;;;5096378;28;20058;-87
2023/09/13 08:07:03;;;;;;;0.00;0.00;;;;;;;;;;5122369;28;20012;-86
2023/09/13 08:09:41;;;;;;;;;;;;;;;;;;;;;
2023/09/13 08:12:07;;;;;;;0.00;0.00;;;;;;;;;;5099179;28;20019;-85
2023/09/13 08:14:34;;;;;;;0.00;0.00;;;;;;;;;;5096304;28;20440;-85
2023/09/13 08:17:02;;;;;;;0.00;0.00;;;;;;;;;;5115278;28;20024;-86
2023/09/13 08:19:33;;;;;;;0.00;0.00;;;;;;;;;;5080075;28;20105;-86
2023/09/13 08:22:10;;;;;;;;;;;;;;;;;;;;;
2023/09/13 08:24:48;;;;;;;0.00;0.00;;;;;;;;;;5078478;28;20036;-87
2023/09/13 08:27:31;;;;;;;0.00;0.00;;;;;;;;;;5100043;28;20028;-87
2023/09/13 08:29:56;;;;;;;0.00;0.00;;;;;;;;;;5077185;28;20028;-86
2023/09/13 08:32:22;;;;;;;0.00;0.00;;;;;;;;;;5100287;28;20055;-86
2023/09/13 08:37:40;;;;;;;0.00;0.00;;;;;;;;;;5083570;28;20440;-85
2023/09/13 08:40:10;;;;;;;0.00;0.00;;;;;;;;;;5071307;28;20023;-86
2023/09/13 08:42:35;;;;;;;0.00;0.00;;;;;;;;;;5059432;28;20039;-85
2023/09/13 08:47:52;;;;;;;0.00;0.00;;;;;;;;;;5052940;28;20589;-86
2023/09/13 08:50:28;;;;;;;0.00;0.00;;;;;;;;;;5061777;28;20036;-85
2023/09/13 08:56:14;;;;;;;0.00;0.00;;;;;;;;;;5076091;28;20075;-86
2023/09/13 09:06:17;;;;;;;0.00;0.00;;;;;;;;;;5112314;28;20034;-85
2023/09/13 09:08:49;;;;;;;0.00;0.00;;;;;;;;;;5105814;28;20027;-86
2023/09/13 09:11:28;;;;;;;0.00;0.00;;;;;;;;;;5082241;28;20055;-86
2023/09/13 09:13:53;;;;;;;0.00;0.00;;;;;;;;;;5115845;27;20086;-84
2023/09/13 09:16:24;;;;;;;0.00;0.00;;;;;;;;;;5081061;28;20036;-87
2023/09/13 09:18:53;;;;;;;0.00;0.00;;;;;;;;;;5098191;28;20137;-85
2023/09/13 09:21:19;;;;;;;0.00;0.00;;;;;;;;;;5130806;27;20024;-84
2023/09/13 09:23:47;;;;;;;0.00;0.00;;;;;;;;;;5080051;28;20031;-82
2023/09/13 09:26:13;;;;;;;0.00;0.00;;;;;;;;;;5130964;27;20028;-83
2023/09/13 09:28:38;;;;;;;0.00;0.00;;;;;;;;;;5097180;28;20039;-84
2023/09/13 09:31:04;;;;;;;0.00;0.00;;;;;;;;;;5095866;28;20077;-81
2023/09/13 09:33:30;;;;;;;0.00;0.00;;;;;;;;;;5095903;28;20023;-79
2023/09/13 09:35:59;;;;;;;0.00;0.00;;;;;;;;;;5097348;28;20061;-84
2023/09/13 09:38:28;;;;;;;0.00;0.00;;;;;;;;;;5102733;28;20516;-84
2023/09/13 09:40:58;;;;;;;0.00;0.00;;;;;;;;;;5095633;28;20503;-84
2023/09/13 09:43:24;;;;;;;0.00;0.00;;;;;;;;;;5079407;28;20293;-84
2023/09/13 09:45:51;;;;;;;0.00;0.00;;;;;;;;;;5096693;28;20020;-83
2023/09/13 09:48:17;;;;;;;0.00;0.00;;;;;;;;;;5062873;28;20024;-84
2023/09/13 09:50:45;;;;;;;0.00;0.00;;;;;;;;;;5078143;28;20342;-82
2023/09/13 09:53:12;;;;;;;0.00;0.00;;;;;;;;;;5095212;28;20028;-84
2023/09/13 09:55:38;;;;;;;0.00;0.00;;;;;;;;;;5078367;28;20032;-85
2023/09/13 09:58:03;;;;;;;0.00;0.00;;;;;;;;;;5095307;28;20127;-85
2023/09/13 10:00:43;;;;;;;0.00;0.00;;;;;;;;;;5108458;28;20036;-85
2023/09/13 10:03:15;;;;;;;0.00;0.00;;;;;;;;;;5078944;28;20032;-83
2023/09/13 10:06:06;;;;;;;0.00;0.00;;;;;;;;;;5097393;28;20093;-85
2023/09/13 10:08:41;;;;;;;0.00;0.00;;;;;;;;;;5079163;28;20032;-85
2023/09/13 10:11:07;;;;;;;0.00;0.00;;;;;;;;;;5077879;28;20102;-85
2023/09/13 10:13:33;;;;;;;0.00;0.00;;;;;;;;;;5095884;28;20524;-85
2023/09/13 10:15:59;;;;;;;0.00;0.00;;;;;;;;;;5095754;28;20055;-85
2023/09/13 10:18:25;;;;;;;0.00;0.00;;;;;;;;;;5111363;28;20039;-85
2023/09/13 10:20:52;;;;;;;0.00;0.00;;;;;;;;;;5061296;28;20032;-85
2023/09/13 10:23:17;;;;;;;0.00;0.00;;;;;;;;;;5075198;28;20038;-85
2023/09/13 10:25:43;;;;;;;0.00;0.00;;;;;;;;;;5095071;28;20032;-85
2023/09/13 10:28:09;;;;;;;0.00;0.00;;;;;;;;;;5078016;28;20089;-83
2023/09/13 10:30:37;;;;;;;0.00;0.00;;;;;;;;;;5061052;28;20456;-86
2023/09/13 10:33:09;;;;;;;0.00;0.00;;;;;;;;;;5095197;28;20054;-84
2023/09/13 10:35:38;;;;;;;0.00;0.00;;;;;;;;;;5077979;28;20064;-83
2023/09/13 10:38:16;;;;;;;0.00;0.00;;;;;;;;;;5077305;28;20113;-84
2023/09/13 10:40:46;;;;;;;0.00;0.00;;;;;;;;;;5095115;28;20024;-83
2023/09/13 10:43:13;;;;;;;0.00;0.00;;;;;;;;;;5077310;28;20032;-83
2023/09/13 10:45:41;;;;;;;0.10;0.00;;;;;;;;;;5102415;28;20032;-84
2023/09/13 10:48:06;;;;;;;0.00;0.00;;;;;;;;;;5078101;28;20368;-83
2023/09/13 10:50:32;;;;;;;0.00;0.00;;;;;;;;;;5059652;28;20127;-85
2023/09/13 10:52:57;;;;;;;0.00;0.00;;;;;;;;;;5094128;28;20038;-84
2023/09/13 10:55:23;;;;;;;0.00;0.00;;;;;;;;;;5094386;28;20131;-84
2023/09/13 10:57:48;;;;;;;0.00;0.00;;;;;;;;;;5076782;28;20125;-84
2023/09/13 11:00:20;;;;;;;0.00;0.00;;;;;;;;;;5093717;28;20040;-84
2023/09/13 11:02:46;;;;;;;0.00;0.00;;;;;;;;;;5128332;27;20051;-85
2023/09/13 11:05:12;;;;;;;0.00;0.00;;;;;;;;;;5094900;28;20444;-79
2023/09/13 11:07:56;;;;;;;0.00;0.00;;;;;;;;;;5096854;28;20027;-82
2023/09/13 11:10:22;;;;;;;0.00;0.00;;;;;;;;;;5077325;28;20043;-84
2023/09/13 11:12:48;;;;;;;0.00;0.00;;;;;;;;;;5093931;28;20034;-85
2023/09/13 11:15:21;;;;;;;0.00;0.00;;;;;;;;;;5077080;28;20441;-84
2023/09/13 11:17:46;;;;;;;0.00;0.00;;;;;;;;;;5093415;28;20378;-84
2023/09/13 11:20:24;;;;;;;0.00;0.00;;;;;;;;;;5094551;28;20027;-83
2023/09/13 11:23:10;;;;;;;0.00;0.00;;;;;;;;;;5094938;28;20341;-84
2023/09/13 11:25:46;;;;;;;0.00;0.00;;;;;;;;;;5094686;28;20085;-84
2023/09/13 11:28:36;;;;;;;0.00;0.00;;;;;;;;;;5095538;28;20032;-83
2023/09/13 11:31:02;;;;;;;0.00;0.00;;;;;;;;;;5093991;28;20035;-83
2023/09/13 11:33:28;;;;;;;0.00;0.00;;;;;;;;;;5079679;28;20031;-83
2023/09/13 11:35:57;;;;;;;0.00;0.00;;;;;;;;;;5077233;28;20032;-83
2023/09/13 11:38:26;;;;;;;0.00;0.00;;;;;;;;;;5078420;28;20377;-85
2023/09/13 11:40:57;;;;;;;0.00;0.00;;;;;;;;;;5093876;28;20028;-85
2023/09/13 11:43:27;;;;;;;0.00;0.00;;;;;;;;;;5093473;28;20035;-86
2023/09/13 11:45:58;;;;;;;0.00;0.00;;;;;;;;;;5076123;28;20373;-86
2023/09/13 11:48:49;;;;;;;0.00;0.00;;;;;;;;;;5093048;28;20056;-86
2023/09/13 11:51:32;;;;;;;0.00;0.00;;;;;;;;;;5094941;28;20381;-85
2023/09/13 11:54:15;;;;;;;0.00;0.00;;;;;;;;;;5088790;28;20047;-85
2023/09/13 11:56:46;;;;;;;0.00;0.00;;;;;;;;;;5063246;28;20035;-85
2023/09/13 11:59:12;;;;;;;0.00;0.00;;;;;;;;;;5092856;28;20044;-86
2023/09/13 12:01:52;;;;;;;0.00;0.00;;;;;;;;;;5076841;28;20039;-85
2023/09/13 12:04:27;;;;;;;0.00;0.00;;;;;;;;;;5063632;28;20039;-87
2023/09/13 12:07:11;;;;;;;0.00;0.00;;;;;;;;;;5064993;28;20043;-87
2023/09/13 12:09:39;;;;;;;0.00;0.00;;;;;;;;;;5099406;28;20456;-87
2023/09/13 12:12:14;;;;;;;0.00;0.00;;;;;;;;;;5080339;28;20028;-84
2023/09/13 12:14:42;;;;;;;0.00;0.00;;;;;;;;;;5066746;28;20032;-84
2023/09/13 12:17:08;;;;;;;0.00;0.00;;;;;;;;;;5107511;28;20024;-84
2023/09/13 12:19:35;;;;;;;0.05;0.00;;;;;;;;;;5080120;28;20483;-83
2023/09/13 12:22:00;;;;;;;0.00;0.00;;;;;;;;;;5096491;28;20031;-82
2023/09/13 12:24:25;;;;;;;0.00;0.00;;;;;;;;;;5097763;28;20024;-81
2023/09/13 12:26:51;;;;;;;0.00;0.00;;;;;;;;;;5096861;28;20020;-83
2023/09/13 12:29:17;;;;;;;0.00;0.00;;;;;;;;;;5079815;28;20173;-82
2023/09/13 12:31:42;;;;;;;0.00;0.00;;;;;;;;;;5097863;28;20069;-82
2023/09/13 12:34:08;;;;;;;0.00;0.00;;;;;;;;;;5096146;28;20090;-83
2023/09/13 12:36:34;;;;;;;0.00;0.00;;;;;;;;;;5079692;28;20032;-84
2023/09/13 12:38:59;;;;;;;0.00;0.00;;;;;;;;;;5111023;28;20020;-84
2023/09/13 12:41:30;;;;;;;0.00;0.00;;;;;;;;;;5098250;28;20403;-84
2023/09/13 12:43:56;;;;;;;0.00;0.00;;;;;;;;;;5062923;28;20102;-84
2023/09/13 12:46:23;;;;;;;0.00;0.00;;;;;;;;;;5063339;28;20036;-84
2023/09/13 12:48:49;;;;;;;0.00;0.00;;;;;;;;;;5097944;28;20119;-84
2023/09/13 12:51:19;;;;;;;0.00;0.00;;;;;;;;;;5097486;28;20031;-84
2023/09/13 12:53:45;;;;;;;0.00;0.00;;;;;;;;;;5096352;28;20039;-84
2023/09/13 12:56:11;;;;;;;0.00;0.00;;;;;;;;;;5096418;28;20036;-84
2023/09/13 12:58:49;;;;;;;0.00;0.00;;;;;;;;;;5105605;28;20031;-83
2023/09/13 13:01:15;;;;;;;0.28;0.00;;;;;;;;;;5099599;28;20402;-85
2023/09/13 13:04:09;;;;;;;0.00;0.00;;;;;;;;;;5096093;28;20107;-83
2023/09/13 13:06:54;;;;;;;0.00;0.00;;;;;;;;;;5130170;27;20073;-83
2023/09/13 13:09:21;;;;;;;0.00;0.00;;;;;;;;;;5097344;28;20532;-83
2023/09/13 13:11:49;;;;;;;0.00;0.00;;;;;;;;;;5062801;28;20036;-85
2023/09/13 13:14:14;;;;;;;0.10;0.00;;;;;;;;;;5095373;28;20079;-83
2023/09/13 13:16:42;;;;;;;0.00;0.00;;;;;;;;;;5112872;28;20059;-84
2023/09/13 13:19:07;;;;;;;0.00;0.00;;;;;;;;;;5095475;28;20024;-83
2023/09/13 13:21:33;;;;;;;0.00;0.00;;;;;;;;;;5088881;28;20096;-82
2023/09/13 13:23:58;;;;;;;0.00;0.00;;;;;;;;;;5098443;28;20036;-83
2023/09/13 13:26:24;;;;;;;0.00;0.00;;;;;;;;;;5097051;28;20033;-83
2023/09/13 13:28:50;;;;;;;0.00;0.00;;;;;;;;;;5096535;28;20027;-84
2023/09/13 13:31:20;;;;;;;0.00;0.00;;;;;;;;;;5096616;28;20068;-83
2023/09/13 13:33:46;;;;;;;0.00;0.00;;;;;;;;;;5095477;28;20123;-84
2023/09/13 13:36:11;;;;;;;0.00;0.00;;;;;;;;;;5096404;28;20111;-83
2023/09/13 13:38:37;;;;;;;0.00;0.00;;;;;;;;;;5095399;28;20437;-81
2023/09/13 13:41:06;;;;;;;0.00;0.00;;;;;;;;;;5078622;28;20028;-83
2023/09/13 13:43:33;;;;;;;0.00;0.00;;;;;;;;;;5068767;28;20432;-82
2023/09/13 13:46:00;;;;;;;0.00;0.00;;;;;;;;;;5083151;28;20032;-84
2023/09/13 13:48:25;;;;;;;0.00;0.00;;;;;;;;;;5095662;28;20118;-84
2023/09/13 13:50:51;;;;;;;0.00;0.00;;;;;;;;;;5095090;28;20111;-83
2023/09/13 13:53:16;;;;;;;0.00;0.00;;;;;;;;;;5061282;28;20417;-84
2023/09/13 13:55:42;;;;;;;0.00;0.00;;;;;;;;;;5096301;28;20069;-83
2023/09/13 13:58:08;;;;;;;0.00;0.00;;;;;;;;;;5096126;28;20036;-83
2023/09/13 14:00:34;;;;;;;0.00;0.00;;;;;;;;;;5095908;28;20105;-82
2023/09/13 14:02:59;;;;;;;0.00;0.00;;;;;;;;;;5096358;28;20028;-82
2023/09/13 14:05:27;;;;;;;0.00;0.00;;;;;;;;;;5133366;27;20039;-82
2023/09/13 14:07:52;;;;;;;0.00;0.00;;;;;;;;;;5105748;28;20024;-82
2023/09/13 14:10:18;;;;;;;0.00;0.00;;;;;;;;;;5096384;28;20028;-82
2023/09/13 14:12:44;;;;;;;0.00;0.00;;;;;;;;;;5096159;28;20016;-83
2023/09/13 14:15:09;;;;;;;0.10;0.00;;;;;;;;;;5096027;28;20491;-83
2023/09/13 14:17:35;;;;;;;0.00;0.00;;;;;;;;;;5095868;28;20055;-82
2023/09/13 14:20:00;;;;;;;0.00;0.00;;;;;;;;;;5096218;28;20067;-82
2023/09/13 14:22:26;;;;;;;0.00;0.00;;;;;;;;;;5095818;28;20043;-82
2023/09/13 14:24:52;;;;;;;0.00;0.00;;;;;;;;;;5095051;28;20040;-82
2023/09/13 14:27:17;;;;;;;0.00;0.00;;;;;;;;;;5095922;28;20377;-81
2023/09/13 14:29:42;;;;;;;0.00;0.00;;;;;;;;;;5110641;28;20074;-82
2023/09/13 14:32:09;;;;;;;0.00;0.00;;;;;;;;;;5099697;28;20077;-83
2023/09/13 14:34:39;;;;;;;0.00;0.00;;;;;;;;;;5095054;28;20047;-84
2023/09/13 14:37:04;;;;;;;;;;;;;;;;;;5094840;28;20028;-82
2023/09/13 14:39:30;;;;;;;0.00;0.00;;;;;;;;;;5095565;28;19968;-86
2023/09/13 14:41:55;;;;;;;0.00;0.00;;;;;;;;;;5095359;28;20373;-82
2023/09/13 14:44:21;;;;;;;0.00;0.00;;;;;;;;;;5095451;28;20354;-85
2023/09/13 14:46:52;;;;;;;0.00;0.00;;;;;;;;;;5093726;28;20441;-84
2023/09/13 14:49:19;;;;;;;0.00;0.00;;;;;;;;;;5093904;28;20036;-85
2023/09/13 14:51:46;;;;;;;0.00;0.00;;;;;;;;;;5099816;28;20036;-85
2023/09/13 14:54:11;;;;;;;0.00;0.00;;;;;;;;;;5094804;28;20040;-83
2023/09/13 14:56:37;;;;;;;0.00;0.00;;;;;;;;;;5095538;28;20046;-85
2023/09/13 14:59:03;;;;;;;0.00;0.00;;;;;;;;;;5077460;28;20070;-84
2023/09/13 15:01:28;;;;;;;0.00;0.00;;;;;;;;;;5093691;28;20461;-84
2023/09/13 15:03:54;;;;;;;0.00;0.00;;;;;;;;;;5093455;28;20035;-84
2023/09/13 15:06:19;;;;;;;0.00;0.00;;;;;;;;;;5077211;28;20032;-84